createdAt,value
2023-03-21T00:00:33.010Z,2.60
2023-03-21T00:01:32.990Z,2.60
2023-03-21T00:02:33.115Z,2.60
2023-03-21T00:03:32.974Z,3.00
2023-03-21T00:04:44.526Z,2.70
2023-03-21T00:05:33.034Z,2.90
2023-03-21T00:06:32.942Z,2.30
2023-03-21T00:07:32.965Z,2.90
2023-03-21T00:08:32.920Z,3.00
2023-03-21T00:09:32.904Z,2.70
2023-03-21T00:10:41.740Z,2.90
2023-03-21T00:11:32.894Z,2.50
2023-03-21T00:12:32.894Z,3.00
2023-03-21T00:13:33.067Z,2.70
2023-03-21T00:14:32.887Z,2.70
2023-03-21T00:15:44.131Z,2.80
2023-03-21T00:16:32.858Z,2.50
2023-03-21T00:17:32.850Z,2.80
2023-03-21T00:18:32.817Z,2.80
2023-03-21T00:19:32.808Z,2.70
2023-03-21T00:20:32.816Z,2.30
2023-03-21T00:21:52.316Z,2.80
2023-03-21T00:22:32.798Z,2.10
2023-03-21T00:23:32.759Z,2.60
2023-03-21T00:24:32.743Z,2.70
2023-03-21T00:25:32.736Z,2.30
2023-03-21T00:26:32.728Z,2.80
2023-03-21T00:27:53.300Z,2.70
2023-03-21T00:28:32.711Z,2.20
2023-03-21T00:29:32.706Z,2.50
2023-03-21T00:30:32.698Z,2.90
2023-03-21T00:31:32.672Z,2.50
2023-03-21T00:32:35.574Z,2.60
2023-03-21T00:33:32.662Z,2.40
2023-03-21T00:34:43.086Z,2.30
2023-03-21T00:36:06.521Z,2.50
2023-03-21T00:36:32.705Z,2.40
2023-03-21T00:37:32.614Z,3.20
2023-03-21T00:38:32.605Z,2.70
2023-03-21T00:39:32.608Z,2.60
2023-03-21T00:40:35.417Z,3.00
2023-03-21T00:41:42.124Z,2.50
2023-03-21T00:42:32.561Z,2.80
2023-03-21T00:43:32.547Z,2.40
2023-03-21T00:44:32.738Z,2.90
2023-03-21T00:45:32.522Z,2.50
2023-03-21T00:46:43.720Z,3.30
2023-03-21T00:47:32.696Z,2.40
2023-03-21T00:48:32.548Z,3.10
2023-03-21T00:49:32.475Z,2.40
2023-03-21T00:50:32.483Z,2.70
2023-03-21T00:51:32.457Z,2.60
2023-03-21T00:52:40.669Z,2.60
2023-03-21T00:53:32.448Z,2.50
2023-03-21T00:54:32.429Z,2.50
2023-03-21T00:55:32.461Z,2.80
2023-03-21T00:56:32.419Z,2.40
2023-03-21T00:57:38.711Z,2.90
2023-03-21T00:58:32.389Z,2.50
2023-03-21T00:59:32.381Z,2.70
2023-03-21T01:00:32.409Z,2.50
2023-03-21T01:01:32.475Z,3.00
2023-03-21T01:02:32.378Z,2.80
2023-03-21T01:03:32.359Z,2.70
2023-03-21T01:04:32.324Z,2.70
2023-03-21T01:05:32.306Z,2.30
2023-03-21T01:06:32.312Z,2.50
2023-03-21T01:07:32.301Z,2.20
2023-03-21T01:08:44.696Z,2.60
2023-03-21T01:09:32.269Z,2.40
2023-03-21T01:10:32.270Z,2.40
2023-03-21T01:11:32.245Z,2.50
2023-03-21T01:12:32.273Z,2.80
2023-03-21T01:13:34.573Z,2.80
2023-03-21T01:14:32.237Z,2.20
2023-03-21T01:15:32.215Z,2.30
2023-03-21T01:16:32.274Z,2.40
2023-03-21T01:17:32.192Z,2.30
2023-03-21T01:18:32.182Z,1.90
2023-03-21T01:19:50.298Z,2.80
2023-03-21T01:20:32.155Z,2.00
2023-03-21T01:21:32.144Z,2.70
2023-03-21T01:22:32.161Z,2.30
2023-03-21T01:23:32.121Z,2.40
2023-03-21T01:24:32.446Z,2.20
2023-03-21T01:25:32.099Z,2.20
2023-03-21T01:26:32.090Z,2.00
2023-03-21T01:27:32.088Z,2.00
2023-03-21T01:28:32.081Z,2.50
2023-03-21T01:29:32.062Z,2.10
2023-03-21T01:30:36.933Z,2.40
2023-03-21T01:31:32.078Z,2.10
2023-03-21T01:32:32.707Z,2.30
2023-03-21T01:33:32.014Z,2.30
2023-03-21T01:34:32.000Z,2.10
2023-03-21T01:35:37.459Z,2.40
2023-03-21T01:36:32.047Z,2.50
2023-03-21T01:37:31.990Z,2.70
2023-03-21T01:38:31.963Z,2.40
2023-03-21T01:39:31.952Z,2.50
2023-03-21T01:40:31.947Z,2.40
2023-03-21T01:41:47.281Z,2.50
2023-03-21T01:42:32.001Z,2.30
2023-03-21T01:43:31.922Z,2.40
2023-03-21T01:44:31.913Z,2.70
2023-03-21T01:45:31.942Z,2.60
2023-03-21T01:46:37.243Z,2.30
2023-03-21T01:47:31.884Z,2.30
2023-03-21T01:48:31.851Z,2.30
2023-03-21T01:49:31.859Z,2.00
2023-03-21T01:50:31.835Z,2.40
2023-03-21T01:51:31.817Z,2.40
2023-03-21T01:52:39.416Z,2.30
2023-03-21T01:53:31.806Z,2.30
2023-03-21T01:54:31.798Z,2.20
2023-03-21T01:55:31.777Z,2.60
2023-03-21T01:56:31.790Z,2.40
2023-03-21T01:57:40.994Z,2.00
2023-03-21T01:58:31.761Z,2.60
2023-03-21T01:59:31.750Z,2.50
2023-03-21T02:00:31.757Z,2.30
2023-03-21T02:01:31.714Z,2.40
2023-03-21T02:02:31.745Z,1.90
2023-03-21T02:03:36.093Z,2.50
2023-03-21T02:04:31.687Z,2.30
2023-03-21T02:05:31.673Z,2.50
2023-03-21T02:06:31.726Z,2.40
2023-03-21T02:07:31.691Z,2.30
2023-03-21T02:08:39.094Z,2.20
2023-03-21T02:09:31.640Z,1.90
2023-03-21T02:10:31.650Z,2.10
2023-03-21T02:11:31.619Z,2.00
2023-03-21T02:12:31.656Z,2.50
2023-03-21T02:13:31.583Z,2.10
2023-03-21T02:14:31.581Z,2.50
2023-03-21T02:15:31.573Z,2.40
2023-03-21T02:16:31.642Z,2.30
2023-03-21T02:17:31.590Z,2.50
2023-03-21T02:18:31.534Z,1.90
2023-03-21T02:19:35.643Z,2.40
2023-03-21T02:20:31.523Z,2.30
2023-03-21T02:21:31.500Z,2.60
2023-03-21T02:22:31.563Z,1.90
2023-03-21T02:23:31.496Z,2.20
2023-03-21T02:24:31.475Z,1.90
2023-03-21T02:25:31.468Z,2.20
2023-03-21T02:26:41.152Z,2.40
2023-03-21T02:27:31.481Z,2.20
2023-03-21T02:28:31.448Z,2.20
2023-03-21T02:29:31.419Z,1.90
2023-03-21T02:30:37.401Z,2.40
2023-03-21T02:31:31.477Z,1.80
2023-03-21T02:32:37.310Z,2.60
2023-03-21T02:33:31.390Z,2.00
2023-03-21T02:34:31.373Z,2.20
2023-03-21T02:35:32.177Z,2.10
2023-03-21T02:36:31.433Z,2.20
2023-03-21T02:37:37.533Z,2.20
2023-03-21T02:38:31.348Z,2.10
2023-03-21T02:39:31.313Z,2.60
2023-03-21T02:40:31.321Z,2.10
2023-03-21T02:41:38.260Z,2.30
2023-03-21T02:42:31.346Z,2.40
2023-03-21T02:43:31.284Z,2.20
2023-03-21T02:44:31.275Z,2.20
2023-03-21T02:45:31.263Z,2.20
2023-03-21T02:46:41.838Z,2.40
2023-03-21T02:47:31.261Z,2.20
2023-03-21T02:48:44.375Z,2.40
2023-03-21T02:49:31.219Z,1.70
2023-03-21T02:50:31.247Z,2.60
2023-03-21T02:51:31.193Z,2.40
2023-03-21T02:52:38.739Z,2.40
2023-03-21T02:53:31.192Z,2.20
2023-03-21T02:54:47.074Z,2.40
2023-03-21T02:55:31.162Z,1.90
2023-03-21T02:56:31.145Z,2.40
2023-03-21T02:57:41.691Z,2.20
2023-03-21T02:58:31.127Z,2.20
2023-03-21T02:59:31.113Z,2.30
2023-03-21T03:00:31.110Z,2.30
2023-03-21T03:01:31.100Z,1.80
2023-03-21T03:02:31.151Z,2.50
2023-03-21T03:03:34.683Z,2.10
2023-03-21T03:04:31.249Z,2.30
2023-03-21T03:05:31.052Z,2.20
2023-03-21T03:06:31.046Z,2.20
2023-03-21T03:07:31.053Z,2.20
2023-03-21T03:08:41.313Z,2.40
2023-03-21T03:09:31.010Z,2.00
2023-03-21T03:10:30.999Z,1.90
2023-03-21T03:11:30.989Z,2.40
2023-03-21T03:12:30.980Z,2.10
2023-03-21T03:13:30.986Z,2.50
2023-03-21T03:14:53.114Z,2.00
2023-03-21T03:15:31.001Z,2.50
2023-03-21T03:16:30.961Z,2.10
2023-03-21T03:17:30.926Z,2.30
2023-03-21T03:18:30.954Z,2.30
2023-03-21T03:19:34.468Z,1.90
2023-03-21T03:20:30.907Z,2.30
2023-03-21T03:21:30.877Z,2.00
2023-03-21T03:22:30.880Z,2.20
2023-03-21T03:23:30.887Z,2.20
2023-03-21T03:24:30.853Z,2.40
2023-03-21T03:25:42.005Z,2.30
2023-03-21T03:26:30.845Z,2.40
2023-03-21T03:27:30.825Z,2.40
2023-03-21T03:28:30.833Z,2.30
2023-03-21T03:29:30.800Z,2.40
2023-03-21T03:30:41.273Z,2.40
2023-03-21T03:31:30.823Z,2.30
2023-03-21T03:32:30.766Z,2.10
2023-03-21T03:33:31.320Z,2.50
2023-03-21T03:34:30.746Z,2.30
2023-03-21T03:35:30.762Z,2.20
2023-03-21T03:36:32.793Z,2.60
2023-03-21T03:37:30.716Z,2.30
2023-03-21T03:38:30.723Z,2.70
2023-03-21T03:39:30.686Z,2.20
2023-03-21T03:40:30.687Z,2.60
2023-03-21T03:41:50.244Z,2.70
2023-03-21T03:42:30.675Z,2.50
2023-03-21T03:43:30.690Z,2.10
2023-03-21T03:44:30.653Z,2.30
2023-03-21T03:45:30.628Z,2.40
2023-03-21T03:46:30.640Z,2.30
2023-03-21T03:47:35.062Z,2.60
2023-03-21T03:48:30.668Z,2.50
2023-03-21T03:49:30.583Z,2.40
2023-03-21T03:50:30.584Z,2.50
2023-03-21T03:51:30.590Z,2.20
2023-03-21T03:52:30.557Z,2.40
2023-03-21T03:53:30.540Z,2.50
2023-03-21T03:54:30.541Z,2.40
2023-03-21T03:55:30.511Z,2.30
2023-03-21T03:56:30.528Z,2.30
2023-03-21T03:57:30.506Z,2.20
2023-03-21T03:58:42.906Z,2.20
2023-03-21T03:59:30.481Z,2.60
2023-03-21T04:00:30.463Z,2.30
2023-03-21T04:01:30.504Z,2.50
2023-03-21T04:02:30.506Z,2.30
2023-03-21T04:03:39.227Z,2.60
2023-03-21T04:04:30.482Z,2.50
2023-03-21T04:05:30.420Z,2.30
2023-03-21T04:06:30.409Z,2.40
2023-03-21T04:07:30.400Z,2.50
2023-03-21T04:08:30.401Z,2.90
2023-03-21T04:09:43.036Z,2.20
2023-03-21T04:10:30.371Z,2.60
2023-03-21T04:11:30.360Z,2.20
2023-03-21T04:12:30.339Z,2.30
2023-03-21T04:13:30.360Z,2.30
2023-03-21T04:14:38.887Z,2.20
2023-03-21T04:15:30.330Z,2.30
2023-03-21T04:16:30.362Z,2.00
2023-03-21T04:17:30.298Z,2.40
2023-03-21T04:18:30.304Z,2.40
2023-03-21T04:19:30.278Z,2.30
2023-03-21T04:20:37.080Z,2.20
2023-03-21T04:21:30.257Z,2.10
2023-03-21T04:22:30.251Z,2.40
2023-03-21T04:23:30.255Z,2.20
2023-03-21T04:24:30.228Z,2.50
2023-03-21T04:25:33.753Z,2.30
2023-03-21T04:26:30.212Z,2.60
2023-03-21T04:27:30.205Z,2.60
2023-03-21T04:28:30.194Z,2.40
2023-03-21T04:29:30.173Z,2.50
2023-03-21T04:30:30.163Z,2.20
2023-03-21T04:31:30.167Z,2.80
2023-03-21T04:32:30.154Z,2.70
2023-03-21T04:33:30.170Z,2.40
2023-03-21T04:34:30.121Z,2.80
2023-03-21T04:35:30.102Z,2.30
2023-03-21T04:36:30.090Z,2.50
2023-03-21T04:37:30.113Z,2.20
2023-03-21T04:38:30.093Z,2.80
2023-03-21T04:39:30.075Z,2.10
2023-03-21T04:40:30.062Z,2.70
2023-03-21T04:41:30.049Z,2.50
2023-03-21T04:42:30.039Z,2.50
2023-03-21T04:43:30.059Z,2.40
2023-03-21T04:44:30.009Z,2.40
2023-03-21T04:45:30.033Z,2.40
2023-03-21T04:46:30.005Z,2.40
2023-03-21T04:47:29.982Z,2.90
2023-03-21T04:48:29.983Z,2.10
2023-03-21T04:49:29.959Z,2.60
2023-03-21T04:50:29.890Z,2.80
2023-03-21T04:51:29.940Z,2.70
2023-03-21T04:52:29.958Z,2.80
2023-03-21T04:53:29.882Z,2.20
2023-03-21T04:54:29.841Z,2.40
2023-03-21T04:55:29.842Z,2.10
2023-03-21T04:56:29.880Z,2.50
2023-03-21T04:57:29.898Z,2.30
2023-03-21T04:58:29.838Z,2.20
2023-03-21T04:59:29.801Z,2.40
2023-03-21T05:00:29.838Z,2.40
2023-03-21T05:01:29.822Z,2.60
2023-03-21T05:02:29.761Z,2.40
2023-03-21T05:03:31.368Z,2.50
2023-03-21T05:04:29.761Z,2.30
2023-03-21T05:05:29.738Z,2.60
2023-03-21T05:06:29.718Z,2.50
2023-03-21T05:07:29.736Z,2.40
2023-03-21T05:08:29.713Z,2.50
2023-03-21T05:09:29.699Z,2.70
2023-03-21T05:10:29.670Z,2.90
2023-03-21T05:11:29.668Z,2.30
2023-03-21T05:12:29.671Z,2.50
2023-03-21T05:13:29.668Z,2.50
2023-03-21T05:14:29.633Z,2.10
2023-03-21T05:15:29.633Z,2.50
2023-03-21T05:16:29.663Z,2.20
2023-03-21T05:17:29.617Z,2.20
2023-03-21T05:18:29.603Z,2.30
2023-03-21T05:19:29.577Z,2.30
2023-03-21T05:20:29.566Z,2.40
2023-03-21T05:21:29.695Z,2.30
2023-03-21T05:22:29.575Z,2.90
2023-03-21T05:23:29.572Z,3.30
2023-03-21T05:24:29.539Z,2.40
2023-03-21T05:25:29.526Z,2.30
2023-03-21T05:26:29.509Z,2.80
2023-03-21T05:27:29.500Z,2.50
2023-03-21T05:28:29.479Z,2.50
2023-03-21T05:29:29.510Z,2.50
2023-03-21T05:30:29.462Z,2.50
2023-03-21T05:31:29.461Z,2.70
2023-03-21T05:32:29.451Z,2.10
2023-03-21T05:33:29.454Z,2.50
2023-03-21T05:34:29.441Z,2.50
2023-03-21T05:35:29.418Z,2.30
2023-03-21T05:36:29.400Z,2.50
2023-03-21T05:37:29.413Z,2.20
2023-03-21T05:38:29.377Z,2.40
2023-03-21T05:39:29.382Z,2.40
2023-03-21T05:40:29.352Z,2.70
2023-03-21T05:41:29.358Z,2.40
2023-03-21T05:42:29.341Z,2.40
2023-03-21T05:43:29.335Z,2.50
2023-03-21T05:44:29.956Z,2.20
2023-03-21T05:45:29.307Z,2.80
2023-03-21T05:46:29.343Z,2.30
2023-03-21T05:47:29.287Z,2.60
2023-03-21T05:48:29.286Z,2.60
2023-03-21T05:49:29.288Z,2.40
2023-03-21T05:50:29.269Z,2.70
2023-03-21T05:51:29.258Z,2.30
2023-03-21T05:52:29.242Z,2.50
2023-03-21T05:53:29.234Z,2.40
2023-03-21T05:54:29.227Z,2.40
2023-03-21T05:55:29.201Z,2.60
2023-03-21T05:56:29.188Z,2.40
2023-03-21T05:57:29.209Z,2.20
2023-03-21T05:58:29.166Z,2.40
2023-03-21T05:59:29.182Z,2.30
2023-03-21T06:00:30.549Z,2.20
2023-03-21T06:01:29.157Z,2.70
2023-03-21T06:02:29.151Z,2.30
2023-03-21T06:03:29.141Z,2.80
2023-03-21T06:04:29.208Z,2.60
2023-03-21T06:05:29.114Z,2.00
2023-03-21T06:06:29.107Z,2.20
2023-03-21T06:07:29.148Z,2.60
2023-03-21T06:08:29.070Z,2.40
2023-03-21T06:09:29.179Z,2.30
2023-03-21T06:10:29.046Z,2.30
2023-03-21T06:11:29.045Z,2.00
2023-03-21T06:12:29.033Z,2.30
2023-03-21T06:13:29.015Z,2.50
2023-03-21T06:14:29.025Z,2.30
2023-03-21T06:15:28.992Z,2.40
2023-03-21T06:16:29.025Z,2.50
2023-03-21T06:17:28.966Z,2.30
2023-03-21T06:18:28.965Z,2.20
2023-03-21T06:19:28.982Z,2.30
2023-03-21T06:20:28.937Z,2.10
2023-03-21T06:21:28.930Z,2.20
2023-03-21T06:22:28.945Z,2.30
2023-03-21T06:23:28.924Z,2.40
2023-03-21T06:24:28.910Z,2.00
2023-03-21T06:25:28.900Z,2.30
2023-03-21T06:26:28.874Z,2.10
2023-03-21T06:27:28.867Z,2.20
2023-03-21T06:28:28.846Z,2.20
2023-03-21T06:29:28.864Z,2.30
2023-03-21T06:30:28.847Z,2.50
2023-03-21T06:31:28.851Z,2.20
2023-03-21T06:32:28.802Z,2.40
2023-03-21T06:33:28.804Z,2.40
2023-03-21T06:34:28.825Z,2.60
2023-03-21T06:35:28.816Z,2.20
2023-03-21T06:36:28.802Z,2.30
2023-03-21T06:37:28.761Z,2.20
2023-03-21T06:38:28.747Z,2.10
2023-03-21T06:39:28.772Z,2.10
2023-03-21T06:40:28.725Z,2.10
2023-03-21T06:41:28.726Z,2.30
2023-03-21T06:42:28.699Z,2.30
2023-03-21T06:43:28.712Z,2.50
2023-03-21T06:44:28.696Z,2.80
2023-03-21T06:45:28.677Z,2.50
2023-03-21T06:46:28.750Z,2.30
2023-03-21T06:47:28.658Z,2.30
2023-03-21T06:48:28.642Z,2.30
2023-03-21T06:49:28.650Z,2.10
2023-03-21T06:50:28.620Z,2.10
2023-03-21T06:51:28.843Z,2.20
2023-03-21T06:52:28.599Z,2.30
2023-03-21T06:53:28.585Z,2.30
2023-03-21T06:54:28.598Z,2.20
2023-03-21T06:55:28.616Z,2.30
2023-03-21T06:56:28.583Z,2.80
2023-03-21T06:57:28.561Z,2.10
2023-03-21T06:58:28.567Z,2.40
2023-03-21T06:59:28.549Z,2.20
2023-03-21T07:00:28.589Z,2.90
2023-03-21T07:01:28.508Z,2.40
2023-03-21T07:02:28.511Z,2.40
2023-03-21T07:03:28.482Z,2.70
2023-03-21T07:04:28.489Z,2.40
2023-03-21T07:05:28.461Z,2.40
2023-03-21T07:06:28.474Z,2.30
2023-03-21T07:07:28.449Z,2.70
2023-03-21T07:08:28.452Z,2.30
2023-03-21T07:09:28.435Z,3.40
2023-03-21T07:10:28.422Z,2.60
2023-03-21T07:11:28.423Z,2.90
2023-03-21T07:12:28.380Z,2.80
2023-03-21T07:13:28.434Z,2.10
2023-03-21T07:14:28.423Z,2.70
2023-03-21T07:15:28.364Z,2.40
2023-03-21T07:16:28.366Z,2.70
2023-03-21T07:17:28.342Z,2.70
2023-03-21T07:18:28.323Z,2.90
2023-03-21T07:19:28.334Z,2.50
2023-03-21T07:20:28.330Z,2.70
2023-03-21T07:21:28.307Z,2.60
2023-03-21T07:22:28.281Z,3.20
2023-03-21T07:23:28.286Z,2.50
2023-03-21T07:24:28.276Z,2.80
2023-03-21T07:25:28.346Z,3.00
2023-03-21T07:26:28.243Z,2.40
2023-03-21T07:27:28.238Z,2.80
2023-03-21T07:28:28.239Z,2.70
2023-03-21T07:29:28.221Z,2.70
2023-03-21T07:30:28.243Z,2.70
2023-03-21T07:31:28.252Z,3.10
2023-03-21T07:32:28.172Z,2.90
2023-03-21T07:33:28.170Z,2.90
2023-03-21T07:34:28.198Z,2.60
2023-03-21T07:35:28.176Z,2.90
2023-03-21T07:36:28.163Z,3.10
2023-03-21T07:37:28.139Z,2.80
2023-03-21T07:38:28.167Z,3.20
2023-03-21T07:39:28.120Z,2.70
2023-03-21T07:40:28.112Z,2.90
2023-03-21T07:41:28.110Z,2.80
2023-03-21T07:42:28.068Z,2.80
2023-03-21T07:43:28.070Z,2.90
2023-03-21T07:44:28.306Z,3.00
2023-03-21T07:45:28.043Z,2.70
2023-03-21T07:46:28.061Z,2.80
2023-03-21T07:47:28.015Z,2.50
2023-03-21T07:48:28.087Z,3.20
2023-03-21T07:49:28.052Z,3.10
2023-03-21T07:50:27.996Z,2.80
2023-03-21T07:51:27.975Z,2.40
2023-03-21T07:52:27.963Z,2.80
2023-03-21T07:53:27.967Z,3.00
2023-03-21T07:54:28.192Z,2.70
2023-03-21T07:55:27.945Z,3.20
2023-03-21T07:56:27.918Z,2.80
2023-03-21T07:57:27.907Z,2.80
2023-03-21T07:58:27.975Z,2.60
2023-03-21T07:59:27.971Z,3.10
2023-03-21T08:00:27.876Z,2.70
2023-03-21T08:01:27.909Z,2.90
2023-03-21T08:02:27.924Z,2.70
2023-03-21T08:03:27.910Z,2.90
2023-03-21T08:04:27.871Z,2.90
2023-03-21T08:05:27.832Z,3.10
2023-03-21T08:06:27.810Z,3.00
2023-03-21T08:07:27.801Z,2.80
2023-03-21T08:08:27.792Z,2.60
2023-03-21T08:09:29.142Z,2.90
2023-03-21T08:10:27.841Z,2.80
2023-03-21T08:11:28.415Z,2.80
2023-03-21T08:12:27.742Z,3.10
2023-03-21T08:13:27.760Z,2.70
2023-03-21T08:14:27.760Z,3.00
2023-03-21T08:15:27.740Z,3.00
2023-03-21T08:16:27.778Z,3.00
2023-03-21T08:17:27.735Z,2.60
2023-03-21T08:18:27.694Z,3.00
2023-03-21T08:19:27.672Z,2.60
2023-03-21T08:20:27.765Z,2.80
2023-03-21T08:21:27.652Z,3.00
2023-03-21T08:22:27.641Z,2.80
2023-03-21T08:23:27.627Z,2.90
2023-03-21T08:24:27.628Z,2.50
2023-03-21T08:25:27.636Z,2.80
2023-03-21T08:26:27.621Z,2.80
2023-03-21T08:27:27.601Z,3.00
2023-03-21T08:28:27.596Z,2.60
2023-03-21T08:29:27.572Z,3.10
2023-03-21T08:30:27.631Z,3.00
2023-03-21T08:31:27.665Z,3.20
2023-03-21T08:32:27.540Z,2.90
2023-03-21T08:33:27.569Z,3.10
2023-03-21T08:34:27.535Z,3.50
2023-03-21T08:35:27.680Z,2.80
2023-03-21T08:36:27.496Z,2.80
2023-03-21T08:37:27.485Z,2.90
2023-03-21T08:38:27.482Z,3.10
2023-03-21T08:39:27.504Z,3.00
2023-03-21T08:40:27.474Z,3.10
2023-03-21T08:41:27.467Z,2.70
2023-03-21T08:42:27.439Z,3.40
2023-03-21T08:43:27.467Z,2.80
2023-03-21T08:44:27.458Z,3.10
2023-03-21T08:45:27.422Z,3.10
2023-03-21T08:46:27.416Z,3.10
2023-03-21T08:47:27.402Z,3.00
2023-03-21T08:48:27.382Z,3.30
2023-03-21T08:49:27.387Z,3.00
2023-03-21T08:50:27.413Z,2.80
2023-03-21T08:51:27.335Z,3.40
2023-03-21T08:52:27.335Z,3.30
2023-03-21T08:53:27.313Z,3.30
2023-03-21T08:54:27.367Z,2.80
2023-03-21T08:55:27.364Z,3.20
2023-03-21T08:56:27.312Z,3.20
2023-03-21T08:57:27.265Z,3.00
2023-03-21T08:58:27.263Z,2.80
2023-03-21T08:59:27.252Z,3.10
2023-03-21T09:00:27.858Z,3.30
2023-03-21T09:01:27.318Z,3.10
2023-03-21T09:02:27.254Z,3.20
2023-03-21T09:03:27.224Z,3.00
2023-03-21T09:04:27.334Z,2.80
2023-03-21T09:05:27.219Z,2.70
2023-03-21T09:06:27.181Z,3.10
2023-03-21T09:07:27.163Z,3.20
2023-03-21T09:08:27.172Z,3.30
2023-03-21T09:09:27.141Z,2.60
2023-03-21T09:10:27.202Z,3.20
2023-03-21T09:11:27.119Z,2.90
2023-03-21T09:12:27.119Z,3.20
2023-03-21T09:13:27.092Z,3.00
2023-03-21T09:14:29.039Z,3.00
2023-03-21T09:15:27.106Z,3.20
2023-03-21T09:16:27.150Z,3.40
2023-03-21T09:17:27.088Z,2.80
2023-03-21T09:18:27.096Z,3.00
2023-03-21T09:19:27.085Z,3.20
2023-03-21T09:20:27.056Z,3.30
2023-03-21T09:21:27.017Z,3.10
2023-03-21T09:22:27.018Z,2.80
2023-03-21T09:23:26.994Z,3.00
2023-03-21T09:24:27.017Z,3.20
2023-03-21T09:25:26.991Z,3.50
2023-03-21T09:26:26.972Z,3.40
2023-03-21T09:27:26.982Z,3.70
2023-03-21T09:28:26.949Z,3.30
2023-03-21T09:29:26.925Z,3.10
2023-03-21T09:30:27.080Z,2.80
2023-03-21T09:31:26.932Z,3.00
2023-03-21T09:32:26.936Z,2.80
2023-03-21T09:33:26.895Z,2.80
2023-03-21T09:34:26.907Z,2.70
2023-03-21T09:35:27.177Z,2.90
2023-03-21T09:36:26.886Z,3.00
2023-03-21T09:37:26.849Z,2.80
2023-03-21T09:38:26.840Z,3.30
2023-03-21T09:39:26.832Z,3.40
2023-03-21T09:40:26.860Z,3.50
2023-03-21T09:41:26.798Z,3.40
2023-03-21T09:42:26.859Z,3.20
2023-03-21T09:43:26.865Z,3.10
2023-03-21T09:44:26.916Z,3.30
2023-03-21T09:45:27.008Z,3.10
2023-03-21T09:46:26.805Z,3.30
2023-03-21T09:47:26.732Z,3.40
2023-03-21T09:48:26.753Z,3.20
2023-03-21T09:49:26.729Z,3.30
2023-03-21T09:50:26.729Z,3.10
2023-03-21T09:51:26.757Z,3.10
2023-03-21T09:52:26.700Z,3.00
2023-03-21T09:53:26.682Z,2.90
2023-03-21T09:54:26.699Z,3.30
2023-03-21T09:55:26.691Z,3.20
2023-03-21T09:56:26.653Z,3.30
2023-03-21T09:57:26.664Z,3.20
2023-03-21T09:58:26.641Z,3.20
2023-03-21T09:59:26.686Z,2.90
2023-03-21T10:00:26.649Z,3.10
2023-03-21T10:01:26.709Z,3.40
2023-03-21T10:02:26.586Z,3.60
2023-03-21T10:03:26.569Z,3.10
2023-03-21T10:04:26.597Z,3.20
2023-03-21T10:05:27.159Z,3.00
2023-03-21T10:06:26.544Z,3.30
2023-03-21T10:07:26.546Z,3.40
2023-03-21T10:08:26.526Z,3.40
2023-03-21T10:09:26.517Z,3.50
2023-03-21T10:10:26.524Z,3.60
2023-03-21T10:11:26.492Z,3.50
2023-03-21T10:12:26.484Z,3.00
2023-03-21T10:13:26.465Z,3.20
2023-03-21T10:14:26.513Z,3.80
2023-03-21T10:15:26.977Z,3.20
2023-03-21T10:16:26.454Z,3.70
2023-03-21T10:17:26.428Z,3.10
2023-03-21T10:18:26.432Z,4.60
2023-03-21T10:19:26.406Z,3.00
2023-03-21T10:20:26.415Z,3.20
2023-03-21T10:22:26.383Z,3.30
2023-03-21T10:23:26.370Z,3.70
2023-03-21T10:24:26.389Z,3.30
2023-03-21T10:25:26.385Z,3.40
2023-03-21T10:26:26.355Z,3.60
2023-03-21T10:27:26.329Z,3.50
2023-03-21T10:28:26.338Z,3.20
2023-03-21T10:29:26.332Z,3.70
2023-03-21T10:30:26.312Z,3.20
2023-03-21T10:31:26.425Z,3.40
2023-03-21T10:32:26.345Z,3.30
2023-03-21T10:33:26.256Z,3.30
2023-03-21T10:34:26.264Z,3.20
2023-03-21T10:35:26.298Z,3.30
2023-03-21T10:36:26.242Z,3.30
2023-03-21T10:37:26.264Z,3.20
2023-03-21T10:38:26.229Z,2.90
2023-03-21T10:39:26.278Z,3.20
2023-03-21T10:40:26.303Z,3.20
2023-03-21T10:41:26.168Z,3.40
2023-03-21T10:42:26.197Z,3.30
2023-03-21T10:43:26.154Z,3.20
2023-03-21T10:44:26.145Z,3.30
2023-03-21T10:45:26.153Z,2.90
2023-03-21T10:46:26.312Z,3.30
2023-03-21T10:47:26.319Z,2.90
2023-03-21T10:48:26.306Z,3.00
2023-03-21T10:49:26.093Z,3.10
2023-03-21T10:50:26.125Z,3.10
2023-03-21T10:51:26.074Z,3.30
2023-03-21T10:52:26.052Z,3.20
2023-03-21T10:53:26.042Z,3.00
2023-03-21T10:54:26.061Z,3.30
2023-03-21T10:55:26.122Z,3.10
2023-03-21T10:56:26.019Z,3.30
2023-03-21T10:57:26.013Z,3.10
2023-03-21T10:58:25.993Z,3.10
2023-03-21T10:59:25.976Z,3.20
2023-03-21T11:00:26.083Z,2.80
2023-03-21T11:01:26.148Z,3.30
2023-03-21T11:02:26.034Z,3.40
2023-03-21T11:03:25.929Z,2.90
2023-03-21T11:04:25.938Z,3.20
2023-03-21T11:05:25.928Z,3.00
2023-03-21T11:06:26.012Z,3.30
2023-03-21T11:07:25.879Z,3.10
2023-03-21T11:08:25.878Z,3.00
2023-03-21T11:09:25.890Z,2.90
2023-03-21T11:10:28.786Z,3.60
2023-03-21T11:11:25.870Z,3.10
2023-03-21T11:12:25.883Z,3.10
2023-03-21T11:13:25.828Z,3.20
2023-03-21T11:14:25.825Z,2.90
2023-03-21T11:15:25.814Z,3.90
2023-03-21T11:16:25.891Z,3.00
2023-03-21T11:17:25.798Z,2.80
2023-03-21T11:18:25.787Z,3.00
2023-03-21T11:19:25.761Z,3.10
2023-03-21T11:20:25.770Z,3.50
2023-03-21T11:21:25.759Z,3.30
2023-03-21T11:22:25.860Z,3.10
2023-03-21T11:23:25.729Z,3.00
2023-03-21T11:24:25.741Z,3.40
2023-03-21T11:25:25.724Z,3.40
2023-03-21T11:26:25.748Z,3.20
2023-03-21T11:27:25.689Z,3.20
2023-03-21T11:28:25.716Z,3.20
2023-03-21T11:29:25.675Z,3.10
2023-03-21T11:30:25.671Z,3.20
2023-03-21T11:31:25.723Z,3.20
2023-03-21T11:32:25.633Z,3.20
2023-03-21T11:33:25.803Z,2.90
2023-03-21T11:34:25.625Z,2.90
2023-03-21T11:35:25.594Z,3.30
2023-03-21T11:36:25.651Z,2.90
2023-03-21T11:37:25.588Z,3.00
2023-03-21T11:38:25.579Z,3.30
2023-03-21T11:39:25.564Z,3.10
2023-03-21T11:40:25.593Z,2.60
2023-03-21T11:41:25.550Z,2.90
2023-03-21T11:42:25.523Z,3.00
2023-03-21T11:43:25.530Z,2.40
2023-03-21T11:44:25.505Z,2.50
2023-03-21T11:45:25.502Z,2.60
2023-03-21T11:46:25.574Z,2.60
2023-03-21T11:47:25.506Z,2.50
2023-03-21T11:48:25.510Z,2.80
2023-03-21T11:49:25.440Z,2.40
2023-03-21T11:50:25.456Z,2.50
2023-03-21T11:51:25.452Z,2.60
2023-03-21T11:52:25.430Z,2.20
2023-03-21T11:53:25.417Z,2.60
2023-03-21T11:54:25.397Z,2.60
2023-03-21T11:55:25.379Z,3.10
2023-03-21T11:56:25.496Z,3.10
2023-03-21T11:57:25.359Z,2.70
2023-03-21T11:58:25.356Z,2.90
2023-03-21T11:59:25.344Z,2.90
2023-03-21T12:00:25.343Z,2.70
2023-03-21T12:01:25.725Z,2.70
2023-03-21T12:02:25.364Z,2.80
2023-03-21T12:03:26.202Z,3.60
2023-03-21T12:04:25.398Z,3.20
2023-03-21T12:05:25.270Z,3.00
2023-03-21T12:06:25.285Z,3.50
2023-03-21T12:07:25.268Z,3.50
2023-03-21T12:08:25.279Z,3.40
2023-03-21T12:09:25.247Z,3.20
2023-03-21T12:10:25.238Z,3.30
2023-03-21T12:11:25.245Z,3.20
2023-03-21T12:12:36.466Z,3.20
2023-03-21T12:13:25.191Z,3.20
2023-03-21T12:14:25.189Z,3.00
2023-03-21T12:15:25.172Z,3.60
2023-03-21T12:16:25.265Z,2.90
2023-03-21T12:17:25.171Z,3.50
2023-03-21T12:18:25.153Z,3.40
2023-03-21T12:19:25.129Z,3.20
2023-03-21T12:20:25.126Z,3.10
2023-03-21T12:21:25.128Z,3.40
2023-03-21T12:22:25.105Z,3.20
2023-03-21T12:23:25.281Z,3.30
2023-03-21T12:24:25.081Z,3.30
2023-03-21T12:25:25.065Z,3.40
2023-03-21T12:26:25.238Z,3.40
2023-03-21T12:27:25.156Z,3.30
2023-03-21T12:28:32.683Z,3.20
2023-03-21T12:29:25.046Z,2.90
2023-03-21T12:30:25.013Z,2.80
2023-03-21T12:31:25.297Z,3.00
2023-03-21T12:32:25.017Z,3.00
2023-03-21T12:33:25.037Z,3.30
2023-03-21T12:34:24.987Z,3.40
2023-03-21T12:35:24.963Z,3.10
2023-03-21T12:36:24.966Z,3.20
2023-03-21T12:37:24.962Z,3.20
2023-03-21T12:38:24.936Z,3.20
2023-03-21T12:39:24.942Z,3.50
2023-03-21T12:40:24.916Z,3.20
2023-03-21T12:41:25.454Z,3.60
2023-03-21T12:42:24.884Z,3.40
2023-03-21T12:43:24.895Z,3.30
2023-03-21T12:44:24.870Z,3.50
2023-03-21T12:45:26.062Z,3.40
2023-03-21T12:46:25.584Z,3.40
2023-03-21T12:47:24.839Z,3.60
2023-03-21T12:48:24.898Z,3.30
2023-03-21T12:49:24.810Z,3.60
2023-03-21T12:50:24.849Z,3.70
2023-03-21T12:51:24.814Z,3.80
2023-03-21T12:52:24.780Z,3.90
2023-03-21T12:53:24.782Z,3.80
2023-03-21T12:54:24.756Z,3.80
2023-03-21T12:55:24.754Z,3.70
2023-03-21T12:56:25.265Z,3.70
2023-03-21T12:57:24.758Z,4.00
2023-03-21T12:58:24.759Z,3.50
2023-03-21T12:59:24.705Z,3.60
2023-03-21T13:00:24.786Z,3.60
2023-03-21T13:01:24.757Z,4.00
2023-03-21T13:02:24.782Z,4.00
2023-03-21T13:03:30.585Z,3.70
2023-03-21T13:04:24.721Z,3.60
2023-03-21T13:05:24.644Z,3.70
2023-03-21T13:06:24.639Z,3.80
2023-03-21T13:07:24.653Z,4.00
2023-03-21T13:08:24.668Z,4.20
2023-03-21T13:09:36.794Z,3.50
2023-03-21T13:10:24.600Z,4.00
2023-03-21T13:11:24.578Z,3.40
2023-03-21T13:12:24.565Z,3.40
2023-03-21T13:13:24.569Z,3.20
2023-03-21T13:14:24.575Z,3.50
2023-03-21T13:15:24.664Z,3.20
2023-03-21T13:16:24.654Z,3.40
2023-03-21T13:17:24.518Z,3.60
2023-03-21T13:18:24.559Z,3.50
2023-03-21T13:19:24.492Z,4.10